sensor_id;sensor_type;location;lat;lon;timestamp;temperature;humidity
14705;DHT22;7442;50.840;3.396;2022-12-05T00:37:06;23.90;39.90
14705;DHT22;7442;50.840;3.396;2022-12-05T00:39:37;24.00;39.90
14705;DHT22;7442;50.840;3.396;2022-12-05T00:42:07;24.00;39.90
14705;DHT22;7442;50.840;3.396;2022-12-05T00:44:37;24.00;39.80
14705;DHT22;7442;50.840;3.396;2022-12-05T00:47:06;24.00;39.70
14705;DHT22;7442;50.840;3.396;2022-12-05T00:49:35;24.00;39.80
14705;DHT22;7442;50.840;3.396;2022-12-05T00:52:04;24.00;39.70
14705;DHT22;7442;50.840;3.396;2022-12-05T00:54:33;24.00;39.80
14705;DHT22;7442;50.840;3.396;2022-12-05T00:57:02;23.90;39.70
14705;DHT22;7442;50.840;3.396;2022-12-05T00:59:31;24.00;39.60
14705;DHT22;7442;50.840;3.396;2022-12-05T01:02:00;24.00;39.60
14705;DHT22;7442;50.840;3.396;2022-12-05T01:04:30;24.00;39.60
14705;DHT22;7442;50.840;3.396;2022-12-05T01:06:59;24.00;40.20
14705;DHT22;7442;50.840;3.396;2022-12-05T01:09:28;23.90;39.50
14705;DHT22;7442;50.840;3.396;2022-12-05T01:11:57;23.90;39.60
14705;DHT22;7442;50.840;3.396;2022-12-05T01:14:27;23.90;39.50
14705;DHT22;7442;50.840;3.396;2022-12-05T01:16:56;24.00;39.50
14705;DHT22;7442;50.840;3.396;2022-12-05T01:19:28;24.00;39.40
14705;DHT22;7442;50.840;3.396;2022-12-05T01:21:56;23.90;39.40
14705;DHT22;7442;50.840;3.396;2022-12-05T01:24:26;23.90;39.40
14705;DHT22;7442;50.840;3.396;2022-12-05T01:26:56;24.00;39.40
14705;DHT22;7442;50.840;3.396;2022-12-05T01:29:25;23.90;39.30
14705;DHT22;7442;50.840;3.396;2022-12-05T01:31:54;23.90;39.30
14705;DHT22;7442;50.840;3.396;2022-12-05T01:34:23;23.90;39.30
14705;DHT22;7442;50.840;3.396;2022-12-05T01:36:54;24.00;39.30
14705;DHT22;7442;50.840;3.396;2022-12-05T01:39:22;23.90;39.20
14705;DHT22;7442;50.840;3.396;2022-12-05T01:41:51;23.90;39.30
14705;DHT22;7442;50.840;3.396;2022-12-05T01:46:56;23.80;39.50
14705;DHT22;7442;50.840;3.396;2022-12-05T01:49:34;23.80;39.40
14705;DHT22;7442;50.840;3.396;2022-12-05T01:52:27;23.80;39.40
14705;DHT22;7442;50.840;3.396;2022-12-05T01:54:42;23.80;39.40
14705;DHT22;7442;50.840;3.396;2022-12-05T01:57:13;23.80;39.50
14705;DHT22;7442;50.840;3.396;2022-12-05T01:59:52;23.70;39.40
14705;DHT22;7442;50.840;3.396;2022-12-05T02:02:20;23.70;39.40
14705;DHT22;7442;50.840;3.396;2022-12-05T02:04:59;23.70;39.40
14705;DHT22;7442;50.840;3.396;2022-12-05T02:07:28;23.80;39.50
14705;DHT22;7442;50.840;3.396;2022-12-05T02:09:57;23.70;39.30
14705;DHT22;7442;50.840;3.396;2022-12-05T02:12:27;23.80;39.30
14705;DHT22;7442;50.840;3.396;2022-12-05T02:31:50;23.70;39.30
14705;DHT22;7442;50.840;3.396;2022-12-05T02:34:34;23.70;39.20
14705;DHT22;7442;50.840;3.396;2022-12-05T02:39:59;23.80;39.20
14705;DHT22;7442;50.840;3.396;2022-12-05T02:42:39;23.80;39.10
14705;DHT22;7442;50.840;3.396;2022-12-05T02:45:09;23.80;39.10
14705;DHT22;7442;50.840;3.396;2022-12-05T02:47:46;23.80;39.10
14705;DHT22;7442;50.840;3.396;2022-12-05T02:50:16;23.80;39.70
14705;DHT22;7442;50.840;3.396;2022-12-05T02:52:47;23.80;39.00
14705;DHT22;7442;50.840;3.396;2022-12-05T02:55:18;23.80;39.00
14705;DHT22;7442;50.840;3.396;2022-12-05T02:57:51;23.80;39.00
14705;DHT22;7442;50.840;3.396;2022-12-05T03:00:20;23.80;39.10
14705;DHT22;7442;50.840;3.396;2022-12-05T03:02:52;23.80;39.20
14705;DHT22;7442;50.840;3.396;2022-12-05T03:05:50;23.70;39.00
14705;DHT22;7442;50.840;3.396;2022-12-05T03:08:12;23.80;39.10
14705;DHT22;7442;50.840;3.396;2022-12-05T03:10:43;23.80;39.00
14705;DHT22;7442;50.840;3.396;2022-12-05T03:13:23;23.70;39.00
14705;DHT22;7442;50.840;3.396;2022-12-05T03:15:50;23.70;38.90
14705;DHT22;7442;50.840;3.396;2022-12-05T03:18:25;23.70;39.00
14705;DHT22;7442;50.840;3.396;2022-12-05T03:21:07;23.70;39.00
14705;DHT22;7442;50.840;3.396;2022-12-05T03:23:37;23.70;38.50
14705;DHT22;7442;50.840;3.396;2022-12-05T03:26:09;23.70;38.90
14705;DHT22;7442;50.840;3.396;2022-12-05T03:29:10;23.70;39.00
14705;DHT22;7442;50.840;3.396;2022-12-05T03:31:52;23.70;38.70
14705;DHT22;7442;50.840;3.396;2022-12-05T03:34:29;23.70;39.00
14705;DHT22;7442;50.840;3.396;2022-12-05T03:36:56;23.70;39.00
14705;DHT22;7442;50.840;3.396;2022-12-05T03:39:31;23.70;39.00
14705;DHT22;7442;50.840;3.396;2022-12-05T03:42:12;23.70;38.90
14705;DHT22;7442;50.840;3.396;2022-12-05T03:44:53;23.70;39.10
14705;DHT22;7442;50.840;3.396;2022-12-05T03:47:23;23.70;39.10
14705;DHT22;7442;50.840;3.396;2022-12-05T03:49:55;23.60;39.00
14705;DHT22;7442;50.840;3.396;2022-12-05T03:52:28;23.60;39.00
14705;DHT22;7442;50.840;3.396;2022-12-05T03:55:01;23.70;39.10
14705;DHT22;7442;50.840;3.396;2022-12-05T03:57:39;23.60;39.00
14705;DHT22;7442;50.840;3.396;2022-12-05T04:00:16;23.60;39.20
14705;DHT22;7442;50.840;3.396;2022-12-05T04:02:54;23.60;39.00
14705;DHT22;7442;50.840;3.396;2022-12-05T04:05:26;23.60;39.70
14705;DHT22;7442;50.840;3.396;2022-12-05T04:08:00;23.50;39.10
14705;DHT22;7442;50.840;3.396;2022-12-05T04:10:35;23.50;39.70
14705;DHT22;7442;50.840;3.396;2022-12-05T04:13:06;23.50;39.10
14705;DHT22;7442;50.840;3.396;2022-12-05T04:15:38;23.60;39.10
14705;DHT22;7442;50.840;3.396;2022-12-05T04:18:28;23.50;39.00
14705;DHT22;7442;50.840;3.396;2022-12-05T04:20:58;23.60;39.20
14705;DHT22;7442;50.840;3.396;2022-12-05T04:23:46;23.50;39.10
14705;DHT22;7442;50.840;3.396;2022-12-05T04:26:27;23.50;39.60
14705;DHT22;7442;50.840;3.396;2022-12-05T04:29:04;23.50;39.00
14705;DHT22;7442;50.840;3.396;2022-12-05T04:31:38;23.50;39.00
14705;DHT22;7442;50.840;3.396;2022-12-05T04:34:07;23.50;39.10
14705;DHT22;7442;50.840;3.396;2022-12-05T04:36:40;23.60;39.00
14705;DHT22;7442;50.840;3.396;2022-12-05T04:39:19;23.60;39.10
14705;DHT22;7442;50.840;3.396;2022-12-05T04:41:53;23.50;39.10
14705;DHT22;7442;50.840;3.396;2022-12-05T04:44:22;23.50;39.00
14705;DHT22;7442;50.840;3.396;2022-12-05T04:46:53;23.50;39.10
14705;DHT22;7442;50.840;3.396;2022-12-05T04:49:25;23.50;39.10
14705;DHT22;7442;50.840;3.396;2022-12-05T04:51:56;23.50;39.10
14705;DHT22;7442;50.840;3.396;2022-12-05T04:54:29;23.60;39.00
14705;DHT22;7442;50.840;3.396;2022-12-05T04:57:09;23.50;39.60
14705;DHT22;7442;50.840;3.396;2022-12-05T04:59:38;23.50;38.90
14705;DHT22;7442;50.840;3.396;2022-12-05T05:02:08;23.50;39.10
14705;DHT22;7442;50.840;3.396;2022-12-05T05:04:44;23.50;39.60
14705;DHT22;7442;50.840;3.396;2022-12-05T05:07:15;23.50;39.00
14705;DHT22;7442;50.840;3.396;2022-12-05T05:09:45;23.50;39.00
14705;DHT22;7442;50.840;3.396;2022-12-05T05:12:14;23.50;39.00
14705;DHT22;7442;50.840;3.396;2022-12-05T05:14:43;23.60;38.90
14705;DHT22;7442;50.840;3.396;2022-12-05T05:17:14;23.60;39.60
14705;DHT22;7442;50.840;3.396;2022-12-05T05:19:43;23.60;38.90
14705;DHT22;7442;50.840;3.396;2022-12-05T05:22:13;23.50;38.90
14705;DHT22;7442;50.840;3.396;2022-12-05T05:24:43;23.50;38.90
14705;DHT22;7442;50.840;3.396;2022-12-05T05:27:12;23.50;38.90
14705;DHT22;7442;50.840;3.396;2022-12-05T05:29:43;23.50;38.90
14705;DHT22;7442;50.840;3.396;2022-12-05T05:32:19;23.50;38.90
14705;DHT22;7442;50.840;3.396;2022-12-05T05:34:54;23.60;38.90
14705;DHT22;7442;50.840;3.396;2022-12-05T05:37:20;23.50;39.00
14705;DHT22;7442;50.840;3.396;2022-12-05T05:39:57;23.50;38.90
14705;DHT22;7442;50.840;3.396;2022-12-05T05:42:27;23.50;38.90
14705;DHT22;7442;50.840;3.396;2022-12-05T05:44:57;23.50;38.90
14705;DHT22;7442;50.840;3.396;2022-12-05T05:47:29;23.50;39.00
14705;DHT22;7442;50.840;3.396;2022-12-05T05:50:06;23.50;38.90
14705;DHT22;7442;50.840;3.396;2022-12-05T05:52:37;23.50;38.90
14705;DHT22;7442;50.840;3.396;2022-12-05T05:55:08;23.50;39.10
14705;DHT22;7442;50.840;3.396;2022-12-05T05:57:38;23.50;39.10
14705;DHT22;7442;50.840;3.396;2022-12-05T06:00:13;23.50;39.10
14705;DHT22;7442;50.840;3.396;2022-12-05T06:02:42;23.50;39.00
14705;DHT22;7442;50.840;3.396;2022-12-05T06:05:19;23.40;39.30
14705;DHT22;7442;50.840;3.396;2022-12-05T06:07:51;23.50;39.30
14705;DHT22;7442;50.840;3.396;2022-12-05T06:10:21;23.50;39.40
14705;DHT22;7442;50.840;3.396;2022-12-05T06:12:51;23.60;39.60
14705;DHT22;7442;50.840;3.396;2022-12-05T06:15:24;23.60;39.60
14705;DHT22;7442;50.840;3.396;2022-12-05T06:18:00;23.50;39.80
14705;DHT22;7442;50.840;3.396;2022-12-05T06:20:31;23.50;39.50
14705;DHT22;7442;50.840;3.396;2022-12-05T06:23:01;23.70;39.90
14705;DHT22;7442;50.840;3.396;2022-12-05T06:25:38;23.80;39.80
14705;DHT22;7442;50.840;3.396;2022-12-05T06:28:08;23.90;39.70
14705;DHT22;7442;50.840;3.396;2022-12-05T06:30:38;23.90;39.70
14705;DHT22;7442;50.840;3.396;2022-12-05T06:33:16;23.90;39.80
14705;DHT22;7442;50.840;3.396;2022-12-05T06:35:46;23.90;39.80
14705;DHT22;7442;50.840;3.396;2022-12-05T06:38:16;23.90;39.70
14705;DHT22;7442;50.840;3.396;2022-12-05T06:40:50;23.90;39.60
14705;DHT22;7442;50.840;3.396;2022-12-05T06:43:21;23.90;39.50
14705;DHT22;7442;50.840;3.396;2022-12-05T06:45:57;24.00;39.50
14705;DHT22;7442;50.840;3.396;2022-12-05T06:48:28;24.00;39.50
14705;DHT22;7442;50.840;3.396;2022-12-05T06:50:58;24.10;39.40
14705;DHT22;7442;50.840;3.396;2022-12-05T06:53:30;24.10;39.30
14705;DHT22;7442;50.840;3.396;2022-12-05T06:56:09;24.10;39.20
14705;DHT22;7442;50.840;3.396;2022-12-05T06:58:46;24.10;39.20
14705;DHT22;7442;50.840;3.396;2022-12-05T07:01:22;24.20;39.10
14705;DHT22;7442;50.840;3.396;2022-12-05T07:04:17;24.20;39.10
14705;DHT22;7442;50.840;3.396;2022-12-05T07:06:54;24.20;38.90
14705;DHT22;7442;50.840;3.396;2022-12-05T07:09:25;24.30;39.60
14705;DHT22;7442;50.840;3.396;2022-12-05T07:11:57;24.40;38.80
14705;DHT22;7442;50.840;3.396;2022-12-05T07:14:27;24.40;38.90
14705;DHT22;7442;50.840;3.396;2022-12-05T07:16:56;24.40;38.90
14705;DHT22;7442;50.840;3.396;2022-12-05T07:19:26;24.50;39.00
14705;DHT22;7442;50.840;3.396;2022-12-05T07:21:56;24.50;38.80
14705;DHT22;7442;50.840;3.396;2022-12-05T07:24:25;24.50;38.90
14705;DHT22;7442;50.840;3.396;2022-12-05T07:26:54;24.50;38.20
14705;DHT22;7442;50.840;3.396;2022-12-05T07:29:24;24.40;39.20
14705;DHT22;7442;50.840;3.396;2022-12-05T07:31:55;24.40;39.20
14705;DHT22;7442;50.840;3.396;2022-12-05T07:34:25;24.50;39.10
14705;DHT22;7442;50.840;3.396;2022-12-05T07:36:55;24.60;38.00
14705;DHT22;7442;50.840;3.396;2022-12-05T07:39:24;24.70;38.60
14705;DHT22;7442;50.840;3.396;2022-12-05T07:41:53;24.60;38.70
14705;DHT22;7442;50.840;3.396;2022-12-05T07:44:23;24.60;38.70
14705;DHT22;7442;50.840;3.396;2022-12-05T07:46:51;24.70;38.30
14705;DHT22;7442;50.840;3.396;2022-12-05T07:49:23;24.60;38.70
14705;DHT22;7442;50.840;3.396;2022-12-05T07:51:52;24.60;39.40
14705;DHT22;7442;50.840;3.396;2022-12-05T07:54:26;24.60;38.80
14705;DHT22;7442;50.840;3.396;2022-12-05T07:56:55;24.60;38.80
14705;DHT22;7442;50.840;3.396;2022-12-05T07:59:25;24.60;38.70
14705;DHT22;7442;50.840;3.396;2022-12-05T08:01:54;24.70;38.90
14705;DHT22;7442;50.840;3.396;2022-12-05T08:04:24;24.80;38.60
14705;DHT22;7442;50.840;3.396;2022-12-05T08:06:53;24.90;38.50
14705;DHT22;7442;50.840;3.396;2022-12-05T08:09:21;24.90;38.40
14705;DHT22;7442;50.840;3.396;2022-12-05T08:11:50;25.00;38.10
14705;DHT22;7442;50.840;3.396;2022-12-05T08:14:20;25.00;39.10
14705;DHT22;7442;50.840;3.396;2022-12-05T08:16:49;24.90;38.50
14705;DHT22;7442;50.840;3.396;2022-12-05T08:19:19;25.00;38.30
14705;DHT22;7442;50.840;3.396;2022-12-05T08:21:48;24.90;38.00
14705;DHT22;7442;50.840;3.396;2022-12-05T08:24:20;24.90;38.40
14705;DHT22;7442;50.840;3.396;2022-12-05T08:26:49;24.90;38.30
14705;DHT22;7442;50.840;3.396;2022-12-05T08:29:20;24.90;38.30
14705;DHT22;7442;50.840;3.396;2022-12-05T08:31:50;24.90;38.40
14705;DHT22;7442;50.840;3.396;2022-12-05T08:34:20;24.80;38.10
14705;DHT22;7442;50.840;3.396;2022-12-05T08:36:52;24.80;38.30
14705;DHT22;7442;50.840;3.396;2022-12-05T08:39:22;24.70;37.60
14705;DHT22;7442;50.840;3.396;2022-12-05T08:41:52;24.70;38.10
14705;DHT22;7442;50.840;3.396;2022-12-05T08:44:22;24.70;38.10
14705;DHT22;7442;50.840;3.396;2022-12-05T08:46:52;24.80;38.10
14705;DHT22;7442;50.840;3.396;2022-12-05T08:49:22;24.90;38.10
14705;DHT22;7442;50.840;3.396;2022-12-05T08:51:51;24.90;38.40
14705;DHT22;7442;50.840;3.396;2022-12-05T08:54:21;24.80;38.40
14705;DHT22;7442;50.840;3.396;2022-12-05T08:56:51;24.70;38.80
14705;DHT22;7442;50.840;3.396;2022-12-05T08:59:21;24.70;38.80
14705;DHT22;7442;50.840;3.396;2022-12-05T09:01:51;24.80;38.90
14705;DHT22;7442;50.840;3.396;2022-12-05T09:04:21;24.80;38.90
14705;DHT22;7442;50.840;3.396;2022-12-05T09:06:51;24.80;38.90
14705;DHT22;7442;50.840;3.396;2022-12-05T09:09:21;24.80;39.00
14705;DHT22;7442;50.840;3.396;2022-12-05T09:11:51;24.70;39.00
14705;DHT22;7442;50.840;3.396;2022-12-05T09:14:19;24.60;39.30
14705;DHT22;7442;50.840;3.396;2022-12-05T09:16:49;24.60;39.70
14705;DHT22;7442;50.840;3.396;2022-12-05T09:19:19;24.70;39.30
14705;DHT22;7442;50.840;3.396;2022-12-05T09:21:53;24.80;39.40
14705;DHT22;7442;50.840;3.396;2022-12-05T09:24:24;24.70;39.00
14705;DHT22;7442;50.840;3.396;2022-12-05T09:26:56;24.60;39.20
14705;DHT22;7442;50.840;3.396;2022-12-05T09:29:26;24.60;39.30
14705;DHT22;7442;50.840;3.396;2022-12-05T09:31:57;24.70;39.40
14705;DHT22;7442;50.840;3.396;2022-12-05T09:34:26;24.70;39.50
14705;DHT22;7442;50.840;3.396;2022-12-05T09:36:57;24.70;39.20
14705;DHT22;7442;50.840;3.396;2022-12-05T09:39:28;24.80;39.00
14705;DHT22;7442;50.840;3.396;2022-12-05T09:45:07;24.80;38.30
14705;DHT22;7442;50.840;3.396;2022-12-05T09:50:25;23.50;40.80
14705;DHT22;7442;50.840;3.396;2022-12-05T09:53:03;23.20;41.30
14705;DHT22;7442;50.840;3.396;2022-12-05T09:58:23;23.10;41.80
14705;DHT22;7442;50.840;3.396;2022-12-05T10:00:59;23.00;41.00
14705;DHT22;7442;50.840;3.396;2022-12-05T10:06:20;22.90;41.60
14705;DHT22;7442;50.840;3.396;2022-12-05T10:14:25;22.90;43.20
14705;DHT22;7442;50.840;3.396;2022-12-05T10:16:55;22.90;43.70
14705;DHT22;7442;50.840;3.396;2022-12-05T10:19:32;22.90;44.20
14705;DHT22;7442;50.840;3.396;2022-12-05T10:22:10;22.90;44.50
14705;DHT22;7442;50.840;3.396;2022-12-05T10:24:48;22.80;44.60
14705;DHT22;7442;50.840;3.396;2022-12-05T10:35:37;22.70;44.40
14705;DHT22;7442;50.840;3.396;2022-12-05T10:38:10;22.70;44.40
14705;DHT22;7442;50.840;3.396;2022-12-05T10:40:45;22.70;44.20
14705;DHT22;7442;50.840;3.396;2022-12-05T10:43:23;22.70;44.20
14705;DHT22;7442;50.840;3.396;2022-12-05T10:45:49;22.60;44.40
14705;DHT22;7442;50.840;3.396;2022-12-05T10:48:21;22.70;43.90
14705;DHT22;7442;50.840;3.396;2022-12-05T10:50:54;22.70;44.00
14705;DHT22;7442;50.840;3.396;2022-12-05T10:56:08;22.70;43.60
14705;DHT22;7442;50.840;3.396;2022-12-05T10:58:35;22.70;44.10
14705;DHT22;7442;50.840;3.396;2022-12-05T11:01:12;22.60;44.20
14705;DHT22;7442;50.840;3.396;2022-12-05T11:03:42;22.70;44.30
14705;DHT22;7442;50.840;3.396;2022-12-05T11:06:31;22.70;44.30
14705;DHT22;7442;50.840;3.396;2022-12-05T11:09:04;22.70;44.30
14705;DHT22;7442;50.840;3.396;2022-12-05T11:11:34;22.60;44.40
14705;DHT22;7442;50.840;3.396;2022-12-05T11:14:06;22.60;44.50
14705;DHT22;7442;50.840;3.396;2022-12-05T11:16:38;22.70;44.40
14705;DHT22;7442;50.840;3.396;2022-12-05T11:19:34;22.60;44.80
14705;DHT22;7442;50.840;3.396;2022-12-05T11:22:05;22.60;44.90
14705;DHT22;7442;50.840;3.396;2022-12-05T11:24:39;22.70;44.50
14705;DHT22;7442;50.840;3.396;2022-12-05T11:29:58;22.60;44.60
14705;DHT22;7442;50.840;3.396;2022-12-05T11:32:30;22.60;44.80
14705;DHT22;7442;50.840;3.396;2022-12-05T11:37:51;22.60;44.70
14705;DHT22;7442;50.840;3.396;2022-12-05T11:40:46;22.60;44.70
14705;DHT22;7442;50.840;3.396;2022-12-05T11:43:28;22.60;44.70
14705;DHT22;7442;50.840;3.396;2022-12-05T11:45:58;22.60;44.70
14705;DHT22;7442;50.840;3.396;2022-12-05T11:48:44;22.60;44.60
14705;DHT22;7442;50.840;3.396;2022-12-05T11:51:21;22.60;44.60
14705;DHT22;7442;50.840;3.396;2022-12-05T11:56:38;22.60;44.50
14705;DHT22;7442;50.840;3.396;2022-12-05T11:59:33;22.60;44.10
14705;DHT22;7442;50.840;3.396;2022-12-05T12:07:54;22.60;44.30
14705;DHT22;7442;50.840;3.396;2022-12-05T12:13:29;22.60;44.10
14705;DHT22;7442;50.840;3.396;2022-12-05T12:16:15;22.60;44.20
14705;DHT22;7442;50.840;3.396;2022-12-05T12:30:43;22.60;43.90
14705;DHT22;7442;50.840;3.396;2022-12-05T12:33:27;22.60;43.90
14705;DHT22;7442;50.840;3.396;2022-12-05T12:44:24;22.60;43.80
14705;DHT22;7442;50.840;3.396;2022-12-05T12:46:56;22.60;44.40
14705;DHT22;7442;50.840;3.396;2022-12-05T12:52:13;22.60;43.70
14705;DHT22;7442;50.840;3.396;2022-12-05T13:00:33;22.60;43.70
14705;DHT22;7442;50.840;3.396;2022-12-05T13:03:07;22.60;43.70
14705;DHT22;7442;50.840;3.396;2022-12-05T13:05:38;22.60;43.70
14705;DHT22;7442;50.840;3.396;2022-12-05T13:08:31;22.60;43.90
14705;DHT22;7442;50.840;3.396;2022-12-05T13:11:02;22.70;43.70
14705;DHT22;7442;50.840;3.396;2022-12-05T13:13:45;22.80;43.50
14705;DHT22;7442;50.840;3.396;2022-12-05T13:16:24;22.90;43.40
14705;DHT22;7442;50.840;3.396;2022-12-05T13:18:54;22.90;43.00
14705;DHT22;7442;50.840;3.396;2022-12-05T13:21:25;22.70;41.80
14705;DHT22;7442;50.840;3.396;2022-12-05T13:23:57;22.70;43.00
14705;DHT22;7442;50.840;3.396;2022-12-05T13:26:30;22.60;43.00
14705;DHT22;7442;50.840;3.396;2022-12-05T13:29:04;22.60;43.10
14705;DHT22;7442;50.840;3.396;2022-12-05T13:31:39;22.50;43.20
14705;DHT22;7442;50.840;3.396;2022-12-05T13:34:38;22.50;43.20
14705;DHT22;7442;50.840;3.396;2022-12-05T13:37:22;22.50;43.30
14705;DHT22;7442;50.840;3.396;2022-12-05T13:40:27;22.50;43.30
14705;DHT22;7442;50.840;3.396;2022-12-05T13:43:22;22.50;43.20
14705;DHT22;7442;50.840;3.396;2022-12-05T13:46:04;22.50;43.20
14705;DHT22;7442;50.840;3.396;2022-12-05T13:48:40;22.40;43.30
14705;DHT22;7442;50.840;3.396;2022-12-05T13:51:35;22.40;43.40
14705;DHT22;7442;50.840;3.396;2022-12-05T13:53:56;22.40;43.50
14705;DHT22;7442;50.840;3.396;2022-12-05T14:07:56;22.50;43.50
14705;DHT22;7442;50.840;3.396;2022-12-05T14:15:52;22.30;43.80
14705;DHT22;7442;50.840;3.396;2022-12-05T14:18:38;22.20;43.80
14705;DHT22;7442;50.840;3.396;2022-12-05T14:27:48;22.20;43.80
14705;DHT22;7442;50.840;3.396;2022-12-05T14:32:38;22.20;43.80
14705;DHT22;7442;50.840;3.396;2022-12-05T14:35:12;22.10;43.90
14705;DHT22;7442;50.840;3.396;2022-12-05T14:38:03;22.20;43.90
14705;DHT22;7442;50.840;3.396;2022-12-05T14:40:37;22.10;43.90
14705;DHT22;7442;50.840;3.396;2022-12-05T14:43:30;22.10;44.00
14705;DHT22;7442;50.840;3.396;2022-12-05T14:46:04;22.00;43.90
14705;DHT22;7442;50.840;3.396;2022-12-05T14:48:42;22.10;44.00
14705;DHT22;7442;50.840;3.396;2022-12-05T14:54:07;22.00;43.90
14705;DHT22;7442;50.840;3.396;2022-12-05T14:56:59;22.00;44.00
14705;DHT22;7442;50.840;3.396;2022-12-05T14:59:25;22.00;44.00
14705;DHT22;7442;50.840;3.396;2022-12-05T15:02:00;22.00;44.00
14705;DHT22;7442;50.840;3.396;2022-12-05T15:07:37;22.00;44.10
14705;DHT22;7442;50.840;3.396;2022-12-05T15:10:15;21.90;44.10
14705;DHT22;7442;50.840;3.396;2022-12-05T15:13:04;21.90;44.10
14705;DHT22;7442;50.840;3.396;2022-12-05T15:15:59;21.90;44.20
14705;DHT22;7442;50.840;3.396;2022-12-05T15:18:45;21.90;44.20
14705;DHT22;7442;50.840;3.396;2022-12-05T15:21:30;21.80;44.20
14705;DHT22;7442;50.840;3.396;2022-12-05T15:24:04;21.90;44.30
14705;DHT22;7442;50.840;3.396;2022-12-05T15:26:40;21.80;44.20
14705;DHT22;7442;50.840;3.396;2022-12-05T15:32:13;21.80;44.20
14705;DHT22;7442;50.840;3.396;2022-12-05T15:34:41;21.80;44.20
14705;DHT22;7442;50.840;3.396;2022-12-05T15:42:52;21.70;44.30
14705;DHT22;7442;50.840;3.396;2022-12-05T15:45:20;21.70;44.30
14705;DHT22;7442;50.840;3.396;2022-12-05T15:48:09;21.70;44.30
14705;DHT22;7442;50.840;3.396;2022-12-05T15:50:33;21.70;44.40
14705;DHT22;7442;50.840;3.396;2022-12-05T15:53:15;21.70;44.40
14705;DHT22;7442;50.840;3.396;2022-12-05T15:55:52;21.70;44.40
14705;DHT22;7442;50.840;3.396;2022-12-05T15:58:30;21.60;44.40
14705;DHT22;7442;50.840;3.396;2022-12-05T16:01:04;21.60;44.40
14705;DHT22;7442;50.840;3.396;2022-12-05T16:03:38;21.60;44.40
14705;DHT22;7442;50.840;3.396;2022-12-05T16:06:13;21.60;44.30
14705;DHT22;7442;50.840;3.396;2022-12-05T16:08:46;21.60;44.30
14705;DHT22;7442;50.840;3.396;2022-12-05T16:11:17;21.60;44.20
14705;DHT22;7442;50.840;3.396;2022-12-05T16:13:50;21.60;44.30
14705;DHT22;7442;50.840;3.396;2022-12-05T16:16:22;21.60;44.30
14705;DHT22;7442;50.840;3.396;2022-12-05T16:18:58;21.60;44.30
14705;DHT22;7442;50.840;3.396;2022-12-05T16:21:42;21.60;44.40
14705;DHT22;7442;50.840;3.396;2022-12-05T16:24:28;21.60;44.30
14705;DHT22;7442;50.840;3.396;2022-12-05T16:27:03;21.60;44.30
14705;DHT22;7442;50.840;3.396;2022-12-05T16:29:35;21.50;44.40
14705;DHT22;7442;50.840;3.396;2022-12-05T16:32:22;21.50;44.50
14705;DHT22;7442;50.840;3.396;2022-12-05T16:34:53;21.50;44.50
14705;DHT22;7442;50.840;3.396;2022-12-05T16:37:25;21.50;44.50
14705;DHT22;7442;50.840;3.396;2022-12-05T16:39:56;21.50;44.40
14705;DHT22;7442;50.840;3.396;2022-12-05T16:42:28;21.50;44.60
14705;DHT22;7442;50.840;3.396;2022-12-05T16:44:59;21.50;44.60
14705;DHT22;7442;50.840;3.396;2022-12-05T16:50:33;21.50;44.50
14705;DHT22;7442;50.840;3.396;2022-12-05T16:55:41;21.40;44.50
14705;DHT22;7442;50.840;3.396;2022-12-05T16:58:24;21.40;44.50
14705;DHT22;7442;50.840;3.396;2022-12-05T17:01:05;21.40;44.50
14705;DHT22;7442;50.840;3.396;2022-12-05T17:03:35;21.40;44.50
14705;DHT22;7442;50.840;3.396;2022-12-05T17:06:05;21.40;44.50
14705;DHT22;7442;50.840;3.396;2022-12-05T17:08:38;21.40;44.50
14705;DHT22;7442;50.840;3.396;2022-12-05T17:13:50;21.40;44.60
14705;DHT22;7442;50.840;3.396;2022-12-05T17:16:21;21.40;44.90
14705;DHT22;7442;50.840;3.396;2022-12-05T17:18:52;21.40;44.60
14705;DHT22;7442;50.840;3.396;2022-12-05T17:21:24;21.30;44.60
14705;DHT22;7442;50.840;3.396;2022-12-05T17:23:55;21.30;44.60
14705;DHT22;7442;50.840;3.396;2022-12-05T17:26:26;21.30;44.60
14705;DHT22;7442;50.840;3.396;2022-12-05T17:28:56;21.30;44.70
14705;DHT22;7442;50.840;3.396;2022-12-05T17:31:26;21.30;44.70
14705;DHT22;7442;50.840;3.396;2022-12-05T17:33:56;21.30;44.70
14705;DHT22;7442;50.840;3.396;2022-12-05T17:36:28;21.30;44.70
14705;DHT22;7442;50.840;3.396;2022-12-05T17:38:58;21.30;44.70
14705;DHT22;7442;50.840;3.396;2022-12-05T17:41:28;21.30;44.70
14705;DHT22;7442;50.840;3.396;2022-12-05T17:43:58;21.20;44.60
14705;DHT22;7442;50.840;3.396;2022-12-05T17:46:29;21.20;44.70
14705;DHT22;7442;50.840;3.396;2022-12-05T17:48:59;21.30;44.50
14705;DHT22;7442;50.840;3.396;2022-12-05T17:51:29;21.20;44.50
14705;DHT22;7442;50.840;3.396;2022-12-05T17:53:59;21.20;43.60
14705;DHT22;7442;50.840;3.396;2022-12-05T17:56:29;21.10;44.40
14705;DHT22;7442;50.840;3.396;2022-12-05T17:58:59;21.20;44.50
14705;DHT22;7442;50.840;3.396;2022-12-05T18:01:29;21.10;44.50
14705;DHT22;7442;50.840;3.396;2022-12-05T18:03:59;21.20;44.50
14705;DHT22;7442;50.840;3.396;2022-12-05T18:06:36;21.20;44.60
14705;DHT22;7442;50.840;3.396;2022-12-05T18:09:10;21.20;44.70
14705;DHT22;7442;50.840;3.396;2022-12-05T18:11:40;21.20;44.80
14705;DHT22;7442;50.840;3.396;2022-12-05T18:14:10;21.30;44.80
14705;DHT22;7442;50.840;3.396;2022-12-05T18:16:40;21.30;44.90
14705;DHT22;7442;50.840;3.396;2022-12-05T18:19:11;21.40;45.00
14705;DHT22;7442;50.840;3.396;2022-12-05T18:21:41;21.30;45.00
14705;DHT22;7442;50.840;3.396;2022-12-05T18:24:11;21.40;45.10
14705;DHT22;7442;50.840;3.396;2022-12-05T18:26:45;21.40;45.10
14705;DHT22;7442;50.840;3.396;2022-12-05T18:29:22;21.40;45.20
14705;DHT22;7442;50.840;3.396;2022-12-05T18:31:54;21.40;45.20
14705;DHT22;7442;50.840;3.396;2022-12-05T18:34:24;21.50;45.20
14705;DHT22;7442;50.840;3.396;2022-12-05T18:36:54;21.50;45.20
14705;DHT22;7442;50.840;3.396;2022-12-05T18:39:24;21.50;45.10
14705;DHT22;7442;50.840;3.396;2022-12-05T18:41:56;21.60;45.20
14705;DHT22;7442;50.840;3.396;2022-12-05T18:44:26;21.70;44.90
14705;DHT22;7442;50.840;3.396;2022-12-05T18:46:58;21.70;44.70
14705;DHT22;7442;50.840;3.396;2022-12-05T18:49:28;21.80;44.80
14705;DHT22;7442;50.840;3.396;2022-12-05T18:51:58;21.80;44.80
14705;DHT22;7442;50.840;3.396;2022-12-05T18:54:28;21.80;44.70
14705;DHT22;7442;50.840;3.396;2022-12-05T18:56:58;21.90;44.80
14705;DHT22;7442;50.840;3.396;2022-12-05T18:59:28;21.80;44.70
14705;DHT22;7442;50.840;3.396;2022-12-05T19:01:58;21.90;44.70
14705;DHT22;7442;50.840;3.396;2022-12-05T19:04:29;21.80;44.80
14705;DHT22;7442;50.840;3.396;2022-12-05T19:06:59;21.80;44.70
14705;DHT22;7442;50.840;3.396;2022-12-05T19:09:30;21.80;45.40
14705;DHT22;7442;50.840;3.396;2022-12-05T19:12:01;21.90;44.80
14705;DHT22;7442;50.840;3.396;2022-12-05T19:14:31;21.90;44.80
14705;DHT22;7442;50.840;3.396;2022-12-05T19:17:01;22.00;44.70
14705;DHT22;7442;50.840;3.396;2022-12-05T19:19:31;22.00;44.70
14705;DHT22;7442;50.840;3.396;2022-12-05T19:22:01;22.00;44.60
14705;DHT22;7442;50.840;3.396;2022-12-05T19:24:31;22.00;44.60